sensor_id;sensor_type;location;lat;lon;timestamp;temperature;humidity
68977;SHT31;56029;52.568;13.588;2023-12-20T00:02:21;6.89;99.99
68977;SHT31;56029;52.568;13.588;2023-12-20T00:04:46;6.94;99.99
68977;SHT31;56029;52.568;13.588;2023-12-20T00:07:12;6.94;99.99
68977;SHT31;56029;52.568;13.588;2023-12-20T00:09:37;6.96;99.99
68977;SHT31;56029;52.568;13.588;2023-12-20T00:12:03;6.91;99.99
68977;SHT31;56029;52.568;13.588;2023-12-20T00:14:28;6.87;99.99
68977;SHT31;56029;52.568;13.588;2023-12-20T00:16:54;6.89;99.99
68977;SHT31;56029;52.568;13.588;2023-12-20T00:19:19;6.85;99.99
68977;SHT31;56029;52.568;13.588;2023-12-20T00:21:45;6.89;99.99
68977;SHT31;56029;52.568;13.588;2023-12-20T00:24:10;6.85;99.99
68977;SHT31;56029;52.568;13.588;2023-12-20T00:26:36;6.88;99.99
68977;SHT31;56029;52.568;13.588;2023-12-20T00:29:01;6.87;99.99
68977;SHT31;56029;52.568;13.588;2023-12-20T00:31:27;6.87;99.99
68977;SHT31;56029;52.568;13.588;2023-12-20T00:33:53;6.85;99.99
68977;SHT31;56029;52.568;13.588;2023-12-20T00:36:18;6.85;99.99
68977;SHT31;56029;52.568;13.588;2023-12-20T00:38:44;6.87;99.99
68977;SHT31;56029;52.568;13.588;2023-12-20T00:41:09;6.81;99.99
68977;SHT31;56029;52.568;13.588;2023-12-20T00:43:35;6.81;99.99
68977;SHT31;56029;52.568;13.588;2023-12-20T00:46:00;6.82;99.99
68977;SHT31;56029;52.568;13.588;2023-12-20T00:48:26;6.82;99.99
68977;SHT31;56029;52.568;13.588;2023-12-20T00:50:51;6.85;99.99
68977;SHT31;56029;52.568;13.588;2023-12-20T00:53:17;6.87;99.99
68977;SHT31;56029;52.568;13.588;2023-12-20T00:55:42;6.87;99.99
68977;SHT31;56029;52.568;13.588;2023-12-20T00:58:08;6.88;99.99
68977;SHT31;56029;52.568;13.588;2023-12-20T01:00:33;6.88;99.99
68977;SHT31;56029;52.568;13.588;2023-12-20T01:02:59;6.88;99.99
68977;SHT31;56029;52.568;13.588;2023-12-20T01:05:24;6.84;99.99
68977;SHT31;56029;52.568;13.588;2023-12-20T01:07:50;6.81;99.99
68977;SHT31;56029;52.568;13.588;2023-12-20T01:10:15;6.82;99.99
68977;SHT31;56029;52.568;13.588;2023-12-20T01:12:41;6.82;99.99
68977;SHT31;56029;52.568;13.588;2023-12-20T01:15:07;6.82;99.99
68977;SHT31;56029;52.568;13.588;2023-12-20T01:17:32;6.85;99.99
68977;SHT31;56029;52.568;13.588;2023-12-20T01:19:58;6.87;99.99
68977;SHT31;56029;52.568;13.588;2023-12-20T01:22:23;6.82;99.99
68977;SHT31;56029;52.568;13.588;2023-12-20T01:24:49;6.85;99.99
68977;SHT31;56029;52.568;13.588;2023-12-20T01:27:14;6.88;99.99
68977;SHT31;56029;52.568;13.588;2023-12-20T01:29:40;6.87;99.99
68977;SHT31;56029;52.568;13.588;2023-12-20T01:32:06;6.81;99.99
68977;SHT31;56029;52.568;13.588;2023-12-20T01:34:31;6.85;99.99
68977;SHT31;56029;52.568;13.588;2023-12-20T01:36:57;6.81;99.99
68977;SHT31;56029;52.568;13.588;2023-12-20T01:39:23;6.77;99.99
68977;SHT31;56029;52.568;13.588;2023-12-20T01:41:48;6.81;99.99
68977;SHT31;56029;52.568;13.588;2023-12-20T01:44:14;6.73;99.99
68977;SHT31;56029;52.568;13.588;2023-12-20T01:46:39;6.75;99.99
68977;SHT31;56029;52.568;13.588;2023-12-20T01:49:05;6.74;99.99
68977;SHT31;56029;52.568;13.588;2023-12-20T01:51:31;6.70;99.99
68977;SHT31;56029;52.568;13.588;2023-12-20T01:53:57;6.74;99.99
68977;SHT31;56029;52.568;13.588;2023-12-20T01:56:25;6.73;99.99
68977;SHT31;56029;52.568;13.588;2023-12-20T01:58:52;6.71;99.99
68977;SHT31;56029;52.568;13.588;2023-12-20T02:01:18;6.65;99.99
68977;SHT31;56029;52.568;13.588;2023-12-20T02:03:43;6.67;99.99
68977;SHT31;56029;52.568;13.588;2023-12-20T02:06:10;6.63;99.99
68977;SHT31;56029;52.568;13.588;2023-12-20T02:08:36;6.67;99.99
68977;SHT31;56029;52.568;13.588;2023-12-20T02:11:01;6.63;99.99
68977;SHT31;56029;52.568;13.588;2023-12-20T02:13:27;6.65;99.99
68977;SHT31;56029;52.568;13.588;2023-12-20T02:15:54;6.61;99.99
68977;SHT31;56029;52.568;13.588;2023-12-20T02:18:20;6.57;99.99
68977;SHT31;56029;52.568;13.588;2023-12-20T02:20:45;6.57;99.99
68977;SHT31;56029;52.568;13.588;2023-12-20T02:23:11;6.57;99.99
68977;SHT31;56029;52.568;13.588;2023-12-20T02:25:36;6.60;99.99
68977;SHT31;56029;52.568;13.588;2023-12-20T02:28:02;6.57;99.99
68977;SHT31;56029;52.568;13.588;2023-12-20T02:30:28;6.57;99.99
68977;SHT31;56029;52.568;13.588;2023-12-20T02:32:53;6.54;99.99
68977;SHT31;56029;52.568;13.588;2023-12-20T02:35:19;6.51;99.99
68977;SHT31;56029;52.568;13.588;2023-12-20T02:37:45;6.50;99.99
68977;SHT31;56029;52.568;13.588;2023-12-20T02:40:10;6.50;99.99
68977;SHT31;56029;52.568;13.588;2023-12-20T02:42:36;6.51;99.99
68977;SHT31;56029;52.568;13.588;2023-12-20T02:45:01;6.51;99.99
68977;SHT31;56029;52.568;13.588;2023-12-20T02:47:27;6.50;99.99
68977;SHT31;56029;52.568;13.588;2023-12-20T02:49:52;6.50;99.99
68977;SHT31;56029;52.568;13.588;2023-12-20T02:52:18;6.48;99.99
68977;SHT31;56029;52.568;13.588;2023-12-20T02:54:44;6.45;99.99
68977;SHT31;56029;52.568;13.588;2023-12-20T02:57:09;6.45;99.99
68977;SHT31;56029;52.568;13.588;2023-12-20T02:59:35;6.40;99.99
68977;SHT31;56029;52.568;13.588;2023-12-20T03:02:00;6.37;99.99
68977;SHT31;56029;52.568;13.588;2023-12-20T03:04:26;6.33;99.99
68977;SHT31;56029;52.568;13.588;2023-12-20T03:06:51;6.33;99.99
68977;SHT31;56029;52.568;13.588;2023-12-20T03:09:17;6.33;99.99
68977;SHT31;56029;52.568;13.588;2023-12-20T03:11:42;6.37;99.99
68977;SHT31;56029;52.568;13.588;2023-12-20T03:14:08;6.36;99.99
68977;SHT31;56029;52.568;13.588;2023-12-20T03:16:33;6.38;99.99
68977;SHT31;56029;52.568;13.588;2023-12-20T03:18:59;6.40;99.99
68977;SHT31;56029;52.568;13.588;2023-12-20T03:21:24;6.41;99.99
68977;SHT31;56029;52.568;13.588;2023-12-20T03:23:50;6.32;99.99
68977;SHT31;56029;52.568;13.588;2023-12-20T03:26:16;6.30;99.99
68977;SHT31;56029;52.568;13.588;2023-12-20T03:28:41;6.26;99.99
68977;SHT31;56029;52.568;13.588;2023-12-20T03:31:09;6.19;99.99
68977;SHT31;56029;52.568;13.588;2023-12-20T03:33:34;6.19;99.99
68977;SHT31;56029;52.568;13.588;2023-12-20T03:36:00;6.16;99.99
68977;SHT31;56029;52.568;13.588;2023-12-20T03:38:25;6.12;99.99
68977;SHT31;56029;52.568;13.588;2023-12-20T03:40:51;6.13;99.99
68977;SHT31;56029;52.568;13.588;2023-12-20T03:43:16;6.12;99.99
68977;SHT31;56029;52.568;13.588;2023-12-20T03:45:42;6.07;99.99
68977;SHT31;56029;52.568;13.588;2023-12-20T03:48:08;6.05;99.99
68977;SHT31;56029;52.568;13.588;2023-12-20T03:50:34;6.02;99.99
68977;SHT31;56029;52.568;13.588;2023-12-20T03:53:00;5.98;99.99
68977;SHT31;56029;52.568;13.588;2023-12-20T03:55:25;5.98;99.99
68977;SHT31;56029;52.568;13.588;2023-12-20T03:57:51;5.96;99.99
68977;SHT31;56029;52.568;13.588;2023-12-20T04:00:17;5.95;99.99
68977;SHT31;56029;52.568;13.588;2023-12-20T04:02:42;5.91;99.99
68977;SHT31;56029;52.568;13.588;2023-12-20T04:05:09;5.89;99.99
68977;SHT31;56029;52.568;13.588;2023-12-20T04:07:38;5.89;99.99
68977;SHT31;56029;52.568;13.588;2023-12-20T04:10:04;5.92;99.99
68977;SHT31;56029;52.568;13.588;2023-12-20T04:12:30;5.94;99.99
68977;SHT31;56029;52.568;13.588;2023-12-20T04:14:56;5.92;99.99
68977;SHT31;56029;52.568;13.588;2023-12-20T04:17:22;5.91;99.99
68977;SHT31;56029;52.568;13.588;2023-12-20T04:19:48;5.92;99.99
68977;SHT31;56029;52.568;13.588;2023-12-20T04:22:13;5.89;99.99
68977;SHT31;56029;52.568;13.588;2023-12-20T04:24:39;5.91;99.99
68977;SHT31;56029;52.568;13.588;2023-12-20T04:27:04;5.84;99.99
68977;SHT31;56029;52.568;13.588;2023-12-20T04:29:30;5.82;99.99
68977;SHT31;56029;52.568;13.588;2023-12-20T04:31:55;5.82;99.99
68977;SHT31;56029;52.568;13.588;2023-12-20T04:34:22;5.76;99.99
68977;SHT31;56029;52.568;13.588;2023-12-20T04:36:47;5.75;99.99
68977;SHT31;56029;52.568;13.588;2023-12-20T04:39:13;5.68;99.99
68977;SHT31;56029;52.568;13.588;2023-12-20T04:41:38;5.65;99.99
68977;SHT31;56029;52.568;13.588;2023-12-20T04:44:05;5.58;99.99
68977;SHT31;56029;52.568;13.588;2023-12-20T04:46:31;5.58;99.99
68977;SHT31;56029;52.568;13.588;2023-12-20T04:48:56;5.58;99.99
68977;SHT31;56029;52.568;13.588;2023-12-20T04:51:22;5.61;99.99
68977;SHT31;56029;52.568;13.588;2023-12-20T04:53:47;5.64;99.99
68977;SHT31;56029;52.568;13.588;2023-12-20T04:56:13;5.61;99.99
68977;SHT31;56029;52.568;13.588;2023-12-20T04:58:39;5.59;99.99
68977;SHT31;56029;52.568;13.588;2023-12-20T05:01:05;5.57;99.99
68977;SHT31;56029;52.568;13.588;2023-12-20T05:03:31;5.51;99.99
68977;SHT31;56029;52.568;13.588;2023-12-20T05:05:56;5.48;99.99
68977;SHT31;56029;52.568;13.588;2023-12-20T05:08:22;5.44;99.99
68977;SHT31;56029;52.568;13.588;2023-12-20T05:10:47;5.43;99.99
68977;SHT31;56029;52.568;13.588;2023-12-20T05:13:13;5.44;99.99
68977;SHT31;56029;52.568;13.588;2023-12-20T05:15:38;5.47;99.99
68977;SHT31;56029;52.568;13.588;2023-12-20T05:18:04;5.45;99.99
68977;SHT31;56029;52.568;13.588;2023-12-20T05:20:30;5.47;99.99
68977;SHT31;56029;52.568;13.588;2023-12-20T05:22:55;5.48;99.99
68977;SHT31;56029;52.568;13.588;2023-12-20T05:25:21;5.50;99.99
68977;SHT31;56029;52.568;13.588;2023-12-20T05:27:47;5.48;99.99
68977;SHT31;56029;52.568;13.588;2023-12-20T05:30:13;5.51;99.99
68977;SHT31;56029;52.568;13.588;2023-12-20T05:32:39;5.48;99.99
68977;SHT31;56029;52.568;13.588;2023-12-20T05:35:04;5.41;99.99
68977;SHT31;56029;52.568;13.588;2023-12-20T05:37:30;5.40;99.99
68977;SHT31;56029;52.568;13.588;2023-12-20T05:39:55;5.38;99.99
68977;SHT31;56029;52.568;13.588;2023-12-20T05:42:21;5.38;99.99
68977;SHT31;56029;52.568;13.588;2023-12-20T05:44:46;5.33;99.99
68977;SHT31;56029;52.568;13.588;2023-12-20T05:47:12;5.27;99.99
68977;SHT31;56029;52.568;13.588;2023-12-20T05:49:37;5.22;99.99
68977;SHT31;56029;52.568;13.588;2023-12-20T05:52:03;5.20;99.99
68977;SHT31;56029;52.568;13.588;2023-12-20T05:54:28;5.13;99.99
68977;SHT31;56029;52.568;13.588;2023-12-20T05:56:54;5.07;99.99
68977;SHT31;56029;52.568;13.588;2023-12-20T05:59:20;5.06;99.99
68977;SHT31;56029;52.568;13.588;2023-12-20T06:01:46;4.99;99.99
68977;SHT31;56029;52.568;13.588;2023-12-20T06:04:11;4.99;99.99
68977;SHT31;56029;52.568;13.588;2023-12-20T06:06:41;4.99;99.99
68977;SHT31;56029;52.568;13.588;2023-12-20T06:09:06;4.96;99.99
68977;SHT31;56029;52.568;13.588;2023-12-20T06:11:32;5.01;99.99
68977;SHT31;56029;52.568;13.588;2023-12-20T06:13:57;5.00;99.99
68977;SHT31;56029;52.568;13.588;2023-12-20T06:16:23;5.09;99.99
68977;SHT31;56029;52.568;13.588;2023-12-20T06:18:48;5.15;99.99
68977;SHT31;56029;52.568;13.588;2023-12-20T06:21:14;5.19;99.99
68977;SHT31;56029;52.568;13.588;2023-12-20T06:23:40;5.24;99.99
68977;SHT31;56029;52.568;13.588;2023-12-20T06:26:06;5.19;99.99
68977;SHT31;56029;52.568;13.588;2023-12-20T06:28:31;5.15;99.99
68977;SHT31;56029;52.568;13.588;2023-12-20T06:30:57;5.12;99.99
68977;SHT31;56029;52.568;13.588;2023-12-20T06:33:22;5.10;99.99
68977;SHT31;56029;52.568;13.588;2023-12-20T06:35:49;5.07;99.99
68977;SHT31;56029;52.568;13.588;2023-12-20T06:38:14;5.10;99.99
68977;SHT31;56029;52.568;13.588;2023-12-20T06:40:40;5.12;99.99
68977;SHT31;56029;52.568;13.588;2023-12-20T06:43:05;5.12;99.99
68977;SHT31;56029;52.568;13.588;2023-12-20T06:45:31;5.10;99.99
68977;SHT31;56029;52.568;13.588;2023-12-20T06:47:56;5.16;99.99
68977;SHT31;56029;52.568;13.588;2023-12-20T06:50:22;5.15;99.99
68977;SHT31;56029;52.568;13.588;2023-12-20T06:52:47;5.13;99.99
68977;SHT31;56029;52.568;13.588;2023-12-20T06:55:13;5.13;99.99
68977;SHT31;56029;52.568;13.588;2023-12-20T06:57:38;5.16;99.99
68977;SHT31;56029;52.568;13.588;2023-12-20T07:00:05;5.17;99.99
68977;SHT31;56029;52.568;13.588;2023-12-20T07:02:30;5.17;99.99
68977;SHT31;56029;52.568;13.588;2023-12-20T07:04:56;5.17;99.99
68977;SHT31;56029;52.568;13.588;2023-12-20T07:07:21;5.19;99.99
68977;SHT31;56029;52.568;13.588;2023-12-20T07:09:47;5.24;99.89
68977;SHT31;56029;52.568;13.588;2023-12-20T07:12:13;5.24;99.99
68977;SHT31;56029;52.568;13.588;2023-12-20T07:14:38;5.27;99.99
68977;SHT31;56029;52.568;13.588;2023-12-20T07:17:04;5.31;99.31
68977;SHT31;56029;52.568;13.588;2023-12-20T07:19:29;5.37;99.47
68977;SHT31;56029;52.568;13.588;2023-12-20T07:21:55;5.43;99.37
68977;SHT31;56029;52.568;13.588;2023-12-20T07:24:20;5.45;99.11
68977;SHT31;56029;52.568;13.588;2023-12-20T07:26:46;5.45;99.23
68977;SHT31;56029;52.568;13.588;2023-12-20T07:29:11;5.44;99.20
68977;SHT31;56029;52.568;13.588;2023-12-20T07:31:37;5.45;99.42
68977;SHT31;56029;52.568;13.588;2023-12-20T07:34:02;5.45;99.16
68977;SHT31;56029;52.568;13.588;2023-12-20T07:36:28;5.50;98.78
68977;SHT31;56029;52.568;13.588;2023-12-20T07:38:53;5.55;98.91
68977;SHT31;56029;52.568;13.588;2023-12-20T07:41:19;5.50;98.82
68977;SHT31;56029;52.568;13.588;2023-12-20T07:43:44;5.51;99.16
68977;SHT31;56029;52.568;13.588;2023-12-20T07:46:10;5.51;98.88
68977;SHT31;56029;52.568;13.588;2023-12-20T07:48:35;5.52;98.67
68977;SHT31;56029;52.568;13.588;2023-12-20T07:51:01;5.54;98.72
68977;SHT31;56029;52.568;13.588;2023-12-20T07:53:27;5.61;98.49
68977;SHT31;56029;52.568;13.588;2023-12-20T07:55:53;5.62;98.25
68977;SHT31;56029;52.568;13.588;2023-12-20T07:58:19;5.64;98.01
68977;SHT31;56029;52.568;13.588;2023-12-20T08:00:44;5.62;98.48
68977;SHT31;56029;52.568;13.588;2023-12-20T08:03:10;5.64;98.31
68977;SHT31;56029;52.568;13.588;2023-12-20T08:05:35;5.64;98.03
68977;SHT31;56029;52.568;13.588;2023-12-20T08:08:01;5.68;97.86
68977;SHT31;56029;52.568;13.588;2023-12-20T08:10:26;5.65;98.19
68977;SHT31;56029;52.568;13.588;2023-12-20T08:12:52;5.69;97.59
68977;SHT31;56029;52.568;13.588;2023-12-20T08:15:17;5.66;97.65
68977;SHT31;56029;52.568;13.588;2023-12-20T08:17:43;5.71;97.17
68977;SHT31;56029;52.568;13.588;2023-12-20T08:20:08;5.71;97.37
68977;SHT31;56029;52.568;13.588;2023-12-20T08:22:34;5.74;97.24
68977;SHT31;56029;52.568;13.588;2023-12-20T08:24:59;5.74;97.00
68977;SHT31;56029;52.568;13.588;2023-12-20T08:27:25;5.78;97.10
68977;SHT31;56029;52.568;13.588;2023-12-20T08:29:50;5.79;96.51
68977;SHT31;56029;52.568;13.588;2023-12-20T08:32:16;5.79;97.55
68977;SHT31;56029;52.568;13.588;2023-12-20T08:34:41;5.74;96.82
68977;SHT31;56029;52.568;13.588;2023-12-20T08:37:07;5.76;96.88
68977;SHT31;56029;52.568;13.588;2023-12-20T08:39:32;5.74;97.01
68977;SHT31;56029;52.568;13.588;2023-12-20T08:41:58;5.74;97.09
68977;SHT31;56029;52.568;13.588;2023-12-20T08:44:23;5.72;96.92
68977;SHT31;56029;52.568;13.588;2023-12-20T08:46:49;5.79;96.34
68977;SHT31;56029;52.568;13.588;2023-12-20T08:49:14;5.78;96.55
68977;SHT31;56029;52.568;13.588;2023-12-20T08:51:40;5.81;97.25
68977;SHT31;56029;52.568;13.588;2023-12-20T08:54:05;5.84;96.74
68977;SHT31;56029;52.568;13.588;2023-12-20T08:56:31;5.85;97.14
68977;SHT31;56029;52.568;13.588;2023-12-20T08:58:56;5.89;96.75
68977;SHT31;56029;52.568;13.588;2023-12-20T09:01:22;5.92;97.02
68977;SHT31;56029;52.568;13.588;2023-12-20T09:03:47;5.94;96.32
68977;SHT31;56029;52.568;13.588;2023-12-20T09:06:13;5.96;96.63
68977;SHT31;56029;52.568;13.588;2023-12-20T09:08:39;5.96;96.83
68977;SHT31;56029;52.568;13.588;2023-12-20T09:11:04;5.95;95.92
68977;SHT31;56029;52.568;13.588;2023-12-20T09:13:30;5.98;95.88
68977;SHT31;56029;52.568;13.588;2023-12-20T09:15:56;6.05;96.20
68977;SHT31;56029;52.568;13.588;2023-12-20T09:18:21;6.06;96.19
68977;SHT31;56029;52.568;13.588;2023-12-20T09:20:47;6.13;95.12
68977;SHT31;56029;52.568;13.588;2023-12-20T09:23:12;6.20;95.78
68977;SHT31;56029;52.568;13.588;2023-12-20T09:25:38;6.22;94.97
68977;SHT31;56029;52.568;13.588;2023-12-20T09:28:03;6.24;94.86
68977;SHT31;56029;52.568;13.588;2023-12-20T09:30:29;6.26;95.13
68977;SHT31;56029;52.568;13.588;2023-12-20T09:32:55;6.29;95.02
68977;SHT31;56029;52.568;13.588;2023-12-20T09:35:21;6.27;95.08
68977;SHT31;56029;52.568;13.588;2023-12-20T09:37:47;6.29;94.69
68977;SHT31;56029;52.568;13.588;2023-12-20T09:40:13;6.23;94.71
68977;SHT31;56029;52.568;13.588;2023-12-20T09:42:48;6.24;94.94
68977;SHT31;56029;52.568;13.588;2023-12-20T09:45:14;6.22;94.39
68977;SHT31;56029;52.568;13.588;2023-12-20T09:47:42;6.24;94.29
68977;SHT31;56029;52.568;13.588;2023-12-20T09:50:08;6.30;95.00
68977;SHT31;56029;52.568;13.588;2023-12-20T09:52:36;6.27;95.11
68977;SHT31;56029;52.568;13.588;2023-12-20T09:55:03;6.26;95.07
68977;SHT31;56029;52.568;13.588;2023-12-20T09:57:29;6.26;95.23
68977;SHT31;56029;52.568;13.588;2023-12-20T09:59:55;6.29;94.80
68977;SHT31;56029;52.568;13.588;2023-12-20T10:02:24;6.29;95.20
68977;SHT31;56029;52.568;13.588;2023-12-20T10:04:50;6.27;95.41
68977;SHT31;56029;52.568;13.588;2023-12-20T10:07:15;6.30;94.72
68977;SHT31;56029;52.568;13.588;2023-12-20T10:09:41;6.40;94.79
68977;SHT31;56029;52.568;13.588;2023-12-20T10:12:07;6.38;94.39
68977;SHT31;56029;52.568;13.588;2023-12-20T10:14:33;6.38;94.37
68977;SHT31;56029;52.568;13.588;2023-12-20T10:17:02;6.36;94.43
68977;SHT31;56029;52.568;13.588;2023-12-20T10:19:28;6.36;94.56
68977;SHT31;56029;52.568;13.588;2023-12-20T10:21:53;6.37;95.00
68977;SHT31;56029;52.568;13.588;2023-12-20T10:24:19;6.38;94.92
68977;SHT31;56029;52.568;13.588;2023-12-20T10:26:45;6.38;93.83
68977;SHT31;56029;52.568;13.588;2023-12-20T10:29:10;6.40;94.16
68977;SHT31;56029;52.568;13.588;2023-12-20T10:31:36;6.43;93.75
68977;SHT31;56029;52.568;13.588;2023-12-20T10:34:02;6.48;93.67
68977;SHT31;56029;52.568;13.588;2023-12-20T10:36:29;6.45;92.95
68977;SHT31;56029;52.568;13.588;2023-12-20T10:38:56;6.47;93.40
68977;SHT31;56029;52.568;13.588;2023-12-20T10:41:28;6.47;93.41
68977;SHT31;56029;52.568;13.588;2023-12-20T10:44:01;6.53;93.57
68977;SHT31;56029;52.568;13.588;2023-12-20T10:46:27;6.50;94.32
68977;SHT31;56029;52.568;13.588;2023-12-20T10:48:54;6.47;94.50
68977;SHT31;56029;52.568;13.588;2023-12-20T10:51:20;6.53;94.16
68977;SHT31;56029;52.568;13.588;2023-12-20T10:53:47;6.48;93.76
68977;SHT31;56029;52.568;13.588;2023-12-20T10:56:15;6.54;94.34
68977;SHT31;56029;52.568;13.588;2023-12-20T10:58:42;6.61;94.33
68977;SHT31;56029;52.568;13.588;2023-12-20T11:01:08;6.64;94.27
68977;SHT31;56029;52.568;13.588;2023-12-20T11:03:35;6.63;93.13
68977;SHT31;56029;52.568;13.588;2023-12-20T11:06:07;6.64;92.98
68977;SHT31;56029;52.568;13.588;2023-12-20T11:11:07;6.54;92.53
68977;SHT31;56029;52.568;13.588;2023-12-20T11:13:43;6.60;92.53
68977;SHT31;56029;52.568;13.588;2023-12-20T11:16:10;6.63;92.42
68977;SHT31;56029;52.568;13.588;2023-12-20T11:18:35;6.64;92.29
68977;SHT31;56029;52.568;13.588;2023-12-20T11:21:02;6.70;92.20
68977;SHT31;56029;52.568;13.588;2023-12-20T11:23:30;6.67;92.54
68977;SHT31;56029;52.568;13.588;2023-12-20T11:25:57;6.68;92.27
68977;SHT31;56029;52.568;13.588;2023-12-20T11:28:24;6.70;92.03
68977;SHT31;56029;52.568;13.588;2023-12-20T11:30:54;6.65;92.52
68977;SHT31;56029;52.568;13.588;2023-12-20T11:33:24;6.58;93.50
68977;SHT31;56029;52.568;13.588;2023-12-20T11:35:50;6.55;93.42
68977;SHT31;56029;52.568;13.588;2023-12-20T11:38:16;6.57;93.40
68977;SHT31;56029;52.568;13.588;2023-12-20T11:40:42;6.55;94.72
68977;SHT31;56029;52.568;13.588;2023-12-20T11:43:08;6.51;94.94
68977;SHT31;56029;52.568;13.588;2023-12-20T11:45:34;6.48;94.59
68977;SHT31;56029;52.568;13.588;2023-12-20T11:48:01;6.50;94.92
68977;SHT31;56029;52.568;13.588;2023-12-20T11:50:28;6.45;95.13
68977;SHT31;56029;52.568;13.588;2023-12-20T11:52:54;6.43;94.68
68977;SHT31;56029;52.568;13.588;2023-12-20T11:55:19;6.51;95.70
68977;SHT31;56029;52.568;13.588;2023-12-20T11:57:45;6.53;94.97
68977;SHT31;56029;52.568;13.588;2023-12-20T12:00:11;6.61;94.88
68977;SHT31;56029;52.568;13.588;2023-12-20T12:02:36;6.71;95.16
68977;SHT31;56029;52.568;13.588;2023-12-20T12:05:02;6.74;94.80
68977;SHT31;56029;52.568;13.588;2023-12-20T12:07:28;6.80;94.95
68977;SHT31;56029;52.568;13.588;2023-12-20T12:09:53;6.84;94.64
68977;SHT31;56029;52.568;13.588;2023-12-20T12:12:19;6.87;94.83
68977;SHT31;56029;52.568;13.588;2023-12-20T12:14:45;6.81;94.92
68977;SHT31;56029;52.568;13.588;2023-12-20T12:17:12;6.77;94.01
68977;SHT31;56029;52.568;13.588;2023-12-20T12:19:37;6.73;94.13
68977;SHT31;56029;52.568;13.588;2023-12-20T12:22:08;6.71;94.10
68977;SHT31;56029;52.568;13.588;2023-12-20T12:24:34;6.65;93.78
68977;SHT31;56029;52.568;13.588;2023-12-20T12:26:59;6.67;94.57
68977;SHT31;56029;52.568;13.588;2023-12-20T12:29:25;6.67;94.73
68977;SHT31;56029;52.568;13.588;2023-12-20T12:31:51;6.64;95.48
68977;SHT31;56029;52.568;13.588;2023-12-20T12:34:17;6.64;94.43
68977;SHT31;56029;52.568;13.588;2023-12-20T12:36:43;6.61;95.08
68977;SHT31;56029;52.568;13.588;2023-12-20T12:39:12;6.58;96.07
68977;SHT31;56029;52.568;13.588;2023-12-20T12:41:39;6.55;95.87
68977;SHT31;56029;52.568;13.588;2023-12-20T12:44:04;6.51;96.20
68977;SHT31;56029;52.568;13.588;2023-12-20T12:46:30;6.50;95.92
68977;SHT31;56029;52.568;13.588;2023-12-20T12:48:55;6.41;97.02
68977;SHT31;56029;52.568;13.588;2023-12-20T12:51:21;6.29;96.92
68977;SHT31;56029;52.568;13.588;2023-12-20T12:53:46;6.33;97.11
68977;SHT31;56029;52.568;13.588;2023-12-20T12:56:13;6.29;96.91
68977;SHT31;56029;52.568;13.588;2023-12-20T12:58:39;6.23;97.22
68977;SHT31;56029;52.568;13.588;2023-12-20T13:01:04;6.24;98.50
68977;SHT31;56029;52.568;13.588;2023-12-20T13:03:30;6.23;98.26
68977;SHT31;56029;52.568;13.588;2023-12-20T13:05:56;6.19;98.78
68977;SHT31;56029;52.568;13.588;2023-12-20T13:08:22;6.17;97.93
68977;SHT31;56029;52.568;13.588;2023-12-20T13:10:47;6.16;98.49
68977;SHT31;56029;52.568;13.588;2023-12-20T13:13:13;6.19;98.32
68977;SHT31;56029;52.568;13.588;2023-12-20T13:15:38;6.16;98.33
68977;SHT31;56029;52.568;13.588;2023-12-20T13:18:04;6.17;98.07
68977;SHT31;56029;52.568;13.588;2023-12-20T13:20:30;6.15;98.11
68977;SHT31;56029;52.568;13.588;2023-12-20T13:22:55;6.20;97.88
68977;SHT31;56029;52.568;13.588;2023-12-20T13:25:21;6.16;98.37
68977;SHT31;56029;52.568;13.588;2023-12-20T13:27:46;6.12;98.76
68977;SHT31;56029;52.568;13.588;2023-12-20T13:30:12;6.03;99.65
68977;SHT31;56029;52.568;13.588;2023-12-20T13:32:37;6.03;98.55
68977;SHT31;56029;52.568;13.588;2023-12-20T13:35:03;5.96;99.66
68977;SHT31;56029;52.568;13.588;2023-12-20T13:37:29;5.94;98.16
68977;SHT31;56029;52.568;13.588;2023-12-20T13:39:54;5.86;97.13
68977;SHT31;56029;52.568;13.588;2023-12-20T13:42:20;5.86;96.28
68977;SHT31;56029;52.568;13.588;2023-12-20T13:44:46;5.81;97.70
68977;SHT31;56029;52.568;13.588;2023-12-20T13:47:11;5.82;95.46
68977;SHT31;56029;52.568;13.588;2023-12-20T13:49:37;5.78;94.96
68977;SHT31;56029;52.568;13.588;2023-12-20T13:52:02;5.69;94.42
68977;SHT31;56029;52.568;13.588;2023-12-20T13:54:28;5.66;94.93
68977;SHT31;56029;52.568;13.588;2023-12-20T13:56:53;5.59;94.50
68977;SHT31;56029;52.568;13.588;2023-12-20T13:59:19;5.58;93.77
68977;SHT31;56029;52.568;13.588;2023-12-20T14:01:44;5.52;94.62
68977;SHT31;56029;52.568;13.588;2023-12-20T14:04:10;5.48;93.56
68977;SHT31;56029;52.568;13.588;2023-12-20T14:06:35;5.43;93.89
68977;SHT31;56029;52.568;13.588;2023-12-20T14:09:01;5.44;94.79
68977;SHT31;56029;52.568;13.588;2023-12-20T14:11:26;5.48;93.56
68977;SHT31;56029;52.568;13.588;2023-12-20T14:13:52;5.48;94.26
68977;SHT31;56029;52.568;13.588;2023-12-20T14:16:17;5.48;93.97
68977;SHT31;56029;52.568;13.588;2023-12-20T14:18:43;5.44;93.19
68977;SHT31;56029;52.568;13.588;2023-12-20T14:21:08;5.44;94.00
68977;SHT31;56029;52.568;13.588;2023-12-20T14:23:34;5.41;94.06
68977;SHT31;56029;52.568;13.588;2023-12-20T14:25:59;5.38;93.94
68977;SHT31;56029;52.568;13.588;2023-12-20T14:28:25;5.41;94.40
68977;SHT31;56029;52.568;13.588;2023-12-20T14:30:51;5.43;94.27
68977;SHT31;56029;52.568;13.588;2023-12-20T14:33:16;5.44;93.85
68977;SHT31;56029;52.568;13.588;2023-12-20T14:35:42;5.52;93.57
68977;SHT31;56029;52.568;13.588;2023-12-20T14:38:08;5.51;94.25
68977;SHT31;56029;52.568;13.588;2023-12-20T14:40:33;5.52;93.89
68977;SHT31;56029;52.568;13.588;2023-12-20T14:42:59;5.55;93.88
68977;SHT31;56029;52.568;13.588;2023-12-20T14:45:24;5.55;93.63
68977;SHT31;56029;52.568;13.588;2023-12-20T14:47:50;5.52;92.71
68977;SHT31;56029;52.568;13.588;2023-12-20T14:50:15;5.50;93.09
68977;SHT31;56029;52.568;13.588;2023-12-20T14:52:41;5.47;92.14
68977;SHT31;56029;52.568;13.588;2023-12-20T14:55:06;5.48;92.82
68977;SHT31;56029;52.568;13.588;2023-12-20T14:57:32;5.44;92.66
68977;SHT31;56029;52.568;13.588;2023-12-20T14:59:57;5.48;92.00
68977;SHT31;56029;52.568;13.588;2023-12-20T15:02:23;5.48;92.29
68977;SHT31;56029;52.568;13.588;2023-12-20T15:04:48;5.50;92.51
68977;SHT31;56029;52.568;13.588;2023-12-20T15:07:15;5.47;92.25
68977;SHT31;56029;52.568;13.588;2023-12-20T15:09:40;5.47;92.76
68977;SHT31;56029;52.568;13.588;2023-12-20T15:12:06;5.43;92.78
68977;SHT31;56029;52.568;13.588;2023-12-20T15:14:33;5.37;93.42
68977;SHT31;56029;52.568;13.588;2023-12-20T15:16:59;5.34;93.82
68977;SHT31;56029;52.568;13.588;2023-12-20T15:19:24;5.33;93.99
68977;SHT31;56029;52.568;13.588;2023-12-20T15:21:50;5.26;94.63
68977;SHT31;56029;52.568;13.588;2023-12-20T15:24:15;5.26;94.78